Terminal Aerodrome Forecast
Issued by NWS Charleston, WV

Current Version | Previous Version | Graphics & Text | Print | Product List | Glossary On
Versions: 1 2 3 4 5 6 7 8 9 10 11 12 13 14 15 16 17 18 19 20 21 22 23 24
000
FTUS41 KRLX 142100 AAA
TAFBKW
TAF AMD
KBKW 142156Z 1422/1518 32008KT 6SM BR OVC009
     FM150200 32004KT 6SM BR OVC010
     FM150800 VRB03KT 2SM BR OVC008
     FM151500 12004KT 5SM BR SCT015=

USA.gov is the U.S. government's official web portal to all federal, state and local government web resources and services.